Time;durP1;ratioP1;P1;durP2;ratioP2;P2;SDS_P1;SDS_P2;PMS_P1;PMS_P2;Temp;Humidity;BMP_temperature;BMP_pressure;BME280_temperature;BME280_humidity;BME280_pressure;Samples;Min_cycle;Max_cycle;Signal;HPM_P1;HPM_P2
2024/02/02 00:01:14;;;;;;;8.25;1.90;;;9.10;99.90;;;;;;5069343;28;20028;-48
2024/02/02 00:03:39;;;;;;;5.95;1.77;;;9.10;99.90;;;;;;5068965;28;20041;-50
2024/02/02 00:06:05;;;;;;;6.07;1.48;;;9.10;99.90;;;;;;5068674;28;20037;-46
2024/02/02 00:08:31;;;;;;;7.95;1.60;;;9.20;99.90;;;;;;5068468;28;20194;-50
2024/02/02 00:10:57;;;;;;;6.50;2.05;;;9.10;99.90;;;;;;5068329;28;20032;-49
2024/02/02 00:13:23;;;;;;;5.28;1.67;;;9.20;99.90;;;;;;5068512;28;20033;-50
2024/02/02 00:15:49;;;;;;;6.18;1.95;;;9.10;99.90;;;;;;5068774;28;20290;-49
2024/02/02 00:18:15;;;;;;;6.22;1.90;;;9.20;99.90;;;;;;5068732;28;20044;-48
2024/02/02 00:20:40;;;;;;;11.88;2.15;;;9.20;99.90;;;;;;5068839;28;20028;-48
2024/02/02 00:23:06;;;;;;;5.30;1.75;;;9.20;99.90;;;;;;5068662;28;20025;-47
2024/02/02 00:25:32;;;;;;;4.18;2.13;;;9.20;99.90;;;;;;5068337;28;20033;-48
2024/02/02 00:27:58;;;;;;;5.78;2.05;;;9.20;99.90;;;;;;5068545;28;20024;-47
2024/02/02 00:30:23;;;;;;;5.57;1.55;;;9.20;99.90;;;;;;5068541;28;20098;-47
2024/02/02 00:32:49;;;;;;;8.45;1.55;;;9.20;99.90;;;;;;5066731;28;20083;-50
2024/02/02 00:35:15;;;;;;;4.35;1.35;;;9.20;99.90;;;;;;5068476;28;20084;-50
2024/02/02 00:37:41;;;;;;;3.50;1.60;;;9.20;99.90;;;;;;5068161;28;20179;-49
2024/02/02 00:40:08;;;;;;;7.75;1.52;;;9.20;99.90;;;;;;5068356;28;20029;-48
2024/02/02 00:42:35;;;;;;;4.80;1.15;;;9.20;99.90;;;;;;5068246;28;20043;-49
2024/02/02 00:45:01;;;;;;;7.05;2.22;;;9.20;99.90;;;;;;5068221;28;20024;-50
2024/02/02 00:47:26;;;;;;;4.38;1.30;;;9.20;99.90;;;;;;5068116;28;20304;-50
2024/02/02 00:49:52;;;;;;;4.78;1.83;;;9.20;99.90;;;;;;5067836;28;20304;-49
2024/02/02 00:52:18;;;;;;;7.05;1.77;;;9.20;99.90;;;;;;5068213;28;20044;-49
2024/02/02 00:54:44;;;;;;;3.67;1.50;;;9.20;99.90;;;;;;5068174;28;20032;-50
2024/02/02 00:57:11;;;;;;;5.72;2.00;;;9.20;99.90;;;;;;5067602;28;20035;-49
2024/02/02 00:59:37;;;;;;;2.35;1.55;;;9.20;99.90;;;;;;5067658;28;20071;-48
2024/02/02 01:02:02;;;;;;;2.53;1.23;;;9.20;99.90;;;;;;5067879;28;20096;-47
2024/02/02 01:04:28;;;;;;;5.38;1.42;;;9.20;99.90;;;;;;5067881;28;20040;-48
2024/02/02 01:06:54;;;;;;;4.25;1.35;;;9.20;99.90;;;;;;5067840;28;20040;-47
2024/02/02 01:09:20;;;;;;;3.70;1.35;;;9.20;99.90;;;;;;5067350;28;20299;-48
2024/02/02 01:11:47;;;;;;;5.10;1.75;;;9.20;99.90;;;;;;5067441;28;20333;-47
2024/02/02 01:14:13;;;;;;;1.48;1.00;;;9.30;99.90;;;;;;5067251;28;20017;-47
2024/02/02 01:16:38;;;;;;;4.55;1.38;;;9.30;99.90;;;;;;5067278;28;20116;-47
2024/02/02 01:19:04;;;;;;;4.10;1.35;;;9.30;99.90;;;;;;5067640;28;20032;-48
2024/02/02 01:21:30;;;;;;;1.75;1.00;;;9.30;99.90;;;;;;5067494;28;20052;-49
2024/02/02 01:23:55;;;;;;;2.03;0.90;;;9.30;99.90;;;;;;5067332;28;20061;-47
2024/02/02 01:26:21;;;;;;;2.15;0.90;;;9.30;99.90;;;;;;5067577;28;20100;-48
2024/02/02 01:28:47;;;;;;;4.30;0.98;;;9.30;99.90;;;;;;5067463;28;20028;-48
2024/02/02 01:31:12;;;;;;;2.92;0.95;;;9.30;99.90;;;;;;5067352;28;20090;-46
2024/02/02 01:33:38;;;;;;;3.58;1.00;;;9.30;99.90;;;;;;5067261;28;20059;-47
2024/02/02 01:36:04;;;;;;;3.05;1.02;;;9.30;99.90;;;;;;5067627;28;20258;-47
2024/02/02 01:38:29;;;;;;;4.35;1.23;;;9.30;99.90;;;;;;5066254;28;20341;-47
2024/02/02 01:40:55;;;;;;;4.65;0.95;;;9.30;99.90;;;;;;5066199;28;20036;-48
2024/02/02 01:43:23;;;;;;;4.47;1.10;;;9.30;99.90;;;;;;5066808;28;20032;-48
2024/02/02 01:45:50;;;;;;;2.58;0.82;;;9.40;99.90;;;;;;5066270;28;20040;-48
2024/02/02 01:48:16;;;;;;;7.93;1.48;;;9.40;99.90;;;;;;5066879;28;20040;-48
2024/02/02 01:50:41;;;;;;;5.57;1.40;;;9.40;99.90;;;;;;5067507;28;20021;-47
2024/02/02 01:53:07;;;;;;;5.78;1.63;;;9.40;99.90;;;;;;5067024;28;20052;-46
2024/02/02 01:55:33;;;;;;;7.57;1.90;;;9.40;99.90;;;;;;5067049;28;20266;-49
2024/02/02 01:57:59;;;;;;;6.90;2.17;;;9.40;99.90;;;;;;5065735;28;20024;-47
2024/02/02 02:00:25;;;;;;;6.13;1.38;;;9.40;99.90;;;;;;5065805;28;20051;-47
2024/02/02 02:02:50;;;;;;;3.85;1.42;;;9.40;99.90;;;;;;5066815;28;20191;-48
2024/02/02 02:05:16;;;;;;;4.00;1.30;;;9.40;99.90;;;;;;5066803;28;20025;-47
2024/02/02 02:07:44;;;;;;;1.83;1.00;;;9.50;99.90;;;;;;5066481;28;20029;-47
2024/02/02 02:10:10;;;;;;;2.20;1.08;;;9.40;99.90;;;;;;5066420;28;20308;-47
2024/02/02 02:12:36;;;;;;;3.90;0.95;;;9.40;99.90;;;;;;5065597;28;20017;-54
2024/02/02 02:15:02;;;;;;;2.83;1.10;;;9.40;99.90;;;;;;5066558;28;20230;-47
2024/02/02 02:17:27;;;;;;;3.03;1.00;;;9.40;99.90;;;;;;5065917;28;20041;-52
2024/02/02 02:19:53;;;;;;;3.42;1.00;;;9.40;99.90;;;;;;5066430;28;20021;-54
2024/02/02 02:22:19;;;;;;;2.58;1.30;;;9.40;99.90;;;;;;5065374;28;20104;-54
2024/02/02 02:24:44;;;;;;;4.00;1.40;;;9.40;99.90;;;;;;5066382;28;20077;-55
2024/02/02 02:27:10;;;;;;;4.95;1.27;;;9.40;99.90;;;;;;5066334;28;20048;-55
2024/02/02 02:29:36;;;;;;;3.38;1.10;;;9.40;99.90;;;;;;5065590;28;20231;-55
2024/02/02 02:32:02;;;;;;;2.85;0.93;;;9.40;99.90;;;;;;5065815;28;20039;-54
2024/02/02 02:34:27;;;;;;;3.55;1.00;;;9.40;99.90;;;;;;5066143;28;20098;-52
2024/02/02 02:36:54;;;;;;;3.30;0.85;;;9.30;99.90;;;;;;5066184;28;20032;-52
2024/02/02 02:39:20;;;;;;;4.95;1.00;;;9.30;99.90;;;;;;5065747;28;20029;-52
2024/02/02 02:41:46;;;;;;;3.47;1.17;;;9.30;99.90;;;;;;5066054;28;20190;-53
2024/02/02 02:44:14;;;;;;;1.75;0.60;;;9.30;99.90;;;;;;5064969;28;20031;-53
2024/02/02 02:46:40;;;;;;;1.60;0.70;;;9.30;99.90;;;;;;5065982;28;20060;-54
2024/02/02 02:49:06;;;;;;;1.08;0.82;;;9.30;99.90;;;;;;5066000;28;20057;-55
2024/02/02 02:51:32;;;;;;;2.45;1.10;;;9.30;99.90;;;;;;5065800;28;20048;-55
2024/02/02 02:53:58;;;;;;;6.38;1.40;;;9.20;99.90;;;;;;5065730;28;20036;-54
2024/02/02 02:56:23;;;;;;;6.03;1.35;;;9.20;99.90;;;;;;5065457;28;20033;-54
2024/02/02 02:58:49;;;;;;;3.80;1.42;;;9.20;99.90;;;;;;5065935;28;20020;-54
2024/02/02 03:01:15;;;;;;;5.28;1.30;;;9.20;99.90;;;;;;5065855;28;20130;-52
2024/02/02 03:03:40;;;;;;;5.38;1.55;;;9.10;99.90;;;;;;5065978;28;20028;-51
2024/02/02 03:06:06;;;;;;;5.20;1.25;;;9.20;99.90;;;;;;5065579;28;20048;-54
2024/02/02 03:08:31;;;;;;;6.32;0.90;;;9.10;99.90;;;;;;5065668;28;20032;-53
2024/02/02 03:11:00;;;;;;;3.00;0.77;;;9.10;99.90;;;;;;5065681;28;20337;-54
2024/02/02 03:13:26;;;;;;;3.03;0.90;;;9.10;99.90;;;;;;5065565;28;20032;-54
2024/02/02 03:15:51;;;;;;;2.78;0.93;;;9.10;99.90;;;;;;5065687;28;20077;-54
2024/02/02 03:18:19;;;;;;;4.75;1.25;;;9.10;99.90;;;;;;5065457;28;20056;-54
2024/02/02 03:20:44;;;;;;;3.83;0.80;;;9.10;99.90;;;;;;5065797;28;20041;-54
2024/02/02 03:23:10;;;;;;;2.50;0.77;;;9.10;99.90;;;;;;5065601;28;20029;-55
2024/02/02 03:25:36;;;;;;;3.95;1.00;;;9.10;99.90;;;;;;5065480;28;20334;-55
2024/02/02 03:28:01;;;;;;;2.92;0.98;;;9.10;99.90;;;;;;5065360;28;20040;-55
2024/02/02 03:30:27;;;;;;;5.60;1.10;;;9.10;99.90;;;;;;5064351;28;20028;-54
2024/02/02 03:32:53;;;;;;;4.13;0.90;;;9.10;99.90;;;;;;5065638;28;20041;-54
2024/02/02 03:35:19;;;;;;;3.10;0.70;;;9.00;99.90;;;;;;5065239;28;20082;-54
2024/02/02 03:37:45;;;;;;;5.57;1.30;;;9.10;99.90;;;;;;5065826;28;20036;-54
2024/02/02 03:40:11;;;;;;;7.50;1.50;;;9.00;99.90;;;;;;5065400;28;20025;-54
2024/02/02 03:42:37;;;;;;;6.10;1.40;;;9.00;99.90;;;;;;5065357;28;20028;-54
2024/02/02 03:45:04;;;;;;;7.85;1.52;;;9.00;99.90;;;;;;5065381;28;20059;-54
2024/02/02 03:47:30;;;;;;;14.02;2.05;;;9.00;99.90;;;;;;5064256;28;20033;-53
2024/02/02 03:49:56;;;;;;;8.13;1.85;;;9.00;99.90;;;;;;5064509;28;20032;-54
2024/02/02 03:52:23;;;;;;;8.70;1.90;;;9.00;99.90;;;;;;5064860;28;20203;-53
2024/02/02 03:54:49;;;;;;;4.57;1.75;;;9.00;99.90;;;;;;5065288;28;20282;-54
2024/02/02 03:57:15;;;;;;;4.97;2.05;;;9.00;99.90;;;;;;5065306;28;20037;-53
2024/02/02 03:59:41;;;;;;;10.20;2.60;;;9.00;99.90;;;;;;5064993;28;20099;-53
2024/02/02 04:02:06;;;;;;;3.97;1.63;;;9.00;99.90;;;;;;5065049;28;20044;-55
2024/02/02 04:04:32;;;;;;;3.42;1.23;;;9.00;99.90;;;;;;5065310;28;20142;-53
2024/02/02 04:06:58;;;;;;;4.93;1.15;;;9.00;99.90;;;;;;5064847;28;20025;-53
2024/02/02 04:09:23;;;;;;;3.25;0.90;;;8.90;99.90;;;;;;5068846;28;20032;-54
2024/02/02 04:11:49;;;;;;;3.78;1.30;;;8.90;99.90;;;;;;5068612;28;20032;-54
2024/02/02 04:14:15;;;;;;;1.90;0.70;;;9.00;99.90;;;;;;5068718;28;20084;-54
2024/02/02 04:16:41;;;;;;;5.15;1.10;;;9.00;99.90;;;;;;5068354;28;20064;-54
2024/02/02 04:19:08;;;;;;;6.82;1.33;;;9.00;99.90;;;;;;5068768;28;20044;-54
2024/02/02 04:21:34;;;;;;;5.93;1.40;;;8.90;99.90;;;;;;5068426;28;20306;-54
2024/02/02 04:24:00;;;;;;;3.15;1.02;;;9.00;99.90;;;;;;5068804;28;20033;-54
2024/02/02 04:26:25;;;;;;;3.72;1.17;;;8.90;99.90;;;;;;5068523;28;20029;-53
2024/02/02 04:28:51;;;;;;;2.97;1.00;;;8.90;99.90;;;;;;5068691;28;20307;-55
2024/02/02 04:31:16;;;;;;;4.43;1.23;;;8.90;99.90;;;;;;5068459;28;20051;-54
2024/02/02 04:33:42;;;;;;;3.90;1.00;;;8.90;99.90;;;;;;5068420;28;20051;-53
2024/02/02 04:36:09;;;;;;;6.15;1.27;;;8.90;99.90;;;;;;5068278;28;20306;-55
2024/02/02 04:38:34;;;;;;;5.10;1.20;;;8.90;99.90;;;;;;5050696;28;20107;-55
2024/02/02 04:41:00;;;;;;;8.20;2.03;;;8.90;99.90;;;;;;5068307;28;20287;-53
2024/02/02 04:43:26;;;;;;;8.48;1.83;;;8.90;99.90;;;;;;5068433;28;20234;-53
2024/02/02 04:45:51;;;;;;;4.25;1.60;;;8.90;99.90;;;;;;5068195;28;20048;-53
2024/02/02 04:48:17;;;;;;;5.30;1.75;;;8.90;99.90;;;;;;5068195;28;20078;-53
2024/02/02 04:50:43;;;;;;;8.45;1.85;;;8.90;99.90;;;;;;5068169;28;20037;-55
2024/02/02 04:53:08;;;;;;;3.30;1.58;;;8.90;99.90;;;;;;5068111;28;20029;-53
2024/02/02 04:55:34;;;;;;;6.82;1.80;;;8.90;99.90;;;;;;5068019;28;20110;-53
2024/02/02 04:58:00;;;;;;;4.00;1.60;;;8.90;99.90;;;;;;5067992;28;20025;-52
2024/02/02 05:00:26;;;;;;;9.13;2.33;;;8.90;99.90;;;;;;5067909;28;20021;-53
2024/02/02 05:02:52;;;;;;;6.45;2.22;;;8.90;99.90;;;;;;5068054;28;20198;-52
2024/02/02 05:05:18;;;;;;;6.47;2.75;;;8.90;99.90;;;;;;5067939;28;20037;-54
2024/02/02 05:07:43;;;;;;;6.72;2.42;;;8.90;99.90;;;;;;5067796;28;20045;-54
2024/02/02 05:10:09;;;;;;;8.07;2.53;;;9.00;99.90;;;;;;5067239;28;20040;-53
2024/02/02 05:12:35;;;;;;;5.40;2.25;;;9.00;99.90;;;;;;5067743;28;20095;-53
2024/02/02 05:15:01;;;;;;;7.43;2.42;;;9.00;99.90;;;;;;5067694;28;20025;-53
2024/02/02 05:17:27;;;;;;;8.05;2.95;;;9.00;99.90;;;;;;5066330;28;20048;-53
2024/02/02 05:19:52;;;;;;;8.63;3.15;;;9.00;99.90;;;;;;5067532;28;20190;-52
2024/02/02 05:22:18;;;;;;;7.57;3.03;;;9.00;99.90;;;;;;5067715;28;20061;-53
2024/02/02 05:24:44;;;;;;;13.00;3.88;;;9.00;99.90;;;;;;5067596;28;20097;-53
2024/02/02 05:27:12;;;;;;;10.20;3.65;;;9.10;99.90;;;;;;5067541;28;20029;-54
2024/02/02 05:29:38;;;;;;;10.40;3.15;;;9.10;99.90;;;;;;5067403;28;20293;-53
2024/02/02 05:32:04;;;;;;;6.20;2.90;;;9.10;99.90;;;;;;5067187;28;20090;-53
2024/02/02 05:34:29;;;;;;;7.10;2.35;;;9.20;99.90;;;;;;5067205;28;20032;-54
2024/02/02 05:36:55;;;;;;;10.18;3.03;;;9.20;99.90;;;;;;5067278;28;20033;-52
2024/02/02 05:39:21;;;;;;;9.88;2.90;;;9.20;99.90;;;;;;5066945;28;20247;-53
2024/02/02 05:41:46;;;;;;;6.78;2.53;;;9.20;99.90;;;;;;5067144;28;20033;-52
2024/02/02 05:44:12;;;;;;;8.07;2.85;;;9.20;99.90;;;;;;5066056;28;20041;-54
2024/02/02 05:46:38;;;;;;;9.88;3.28;;;9.30;99.90;;;;;;5067089;28;20096;-53
2024/02/02 05:49:03;;;;;;;7.88;3.50;;;9.30;99.90;;;;;;5067055;28;20033;-53
2024/02/02 05:51:29;;;;;;;4.72;2.78;;;9.30;99.90;;;;;;5066935;28;20306;-54
2024/02/02 05:53:55;;;;;;;10.05;3.35;;;9.30;99.90;;;;;;5066920;28;20099;-52
2024/02/02 05:56:20;;;;;;;6.32;2.55;;;9.30;99.90;;;;;;5065888;28;20036;-53
2024/02/02 05:58:46;;;;;;;6.68;2.88;;;9.30;99.90;;;;;;5066973;28;20063;-53
2024/02/02 06:01:11;;;;;;;7.55;2.92;;;9.30;99.90;;;;;;5066857;28;20052;-53
2024/02/02 06:03:37;;;;;;;8.98;3.17;;;9.30;99.90;;;;;;5066696;28;20078;-54
2024/02/02 06:06:03;;;;;;;9.02;3.38;;;9.30;99.90;;;;;;5066725;28;20037;-53
2024/02/02 06:08:29;;;;;;;8.98;3.22;;;9.20;99.90;;;;;;5066598;28;20040;-53
2024/02/02 06:10:54;;;;;;;8.73;3.28;;;9.10;99.90;;;;;;5066594;28;20270;-53
2024/02/02 06:13:20;;;;;;;13.20;2.90;;;9.20;99.90;;;;;;5066201;28;20032;-54
2024/02/02 06:15:46;;;;;;;9.23;2.80;;;9.20;99.90;;;;;;5066251;28;20025;-52
2024/02/02 06:18:11;;;;;;;8.40;3.28;;;9.10;99.90;;;;;;5065136;28;20044;-54
2024/02/02 06:20:37;;;;;;;8.50;3.03;;;9.10;99.90;;;;;;5065203;28;20056;-53
2024/02/02 06:23:03;;;;;;;8.88;3.17;;;9.20;99.90;;;;;;5066339;28;20025;-53
2024/02/02 06:25:29;;;;;;;7.72;3.47;;;9.20;99.90;;;;;;5066233;28;20286;-52
2024/02/02 06:27:54;;;;;;;15.23;3.90;;;9.20;99.90;;;;;;5066248;28;20033;-53
2024/02/02 06:30:20;;;;;;;8.40;2.47;;;9.20;99.90;;;;;;5064270;28;20025;-53
2024/02/02 06:32:49;;;;;;;8.75;3.25;;;9.20;99.90;;;;;;5065803;28;20029;-52
2024/02/02 06:35:18;;;;;;;12.90;4.15;;;9.30;99.90;;;;;;5065092;28;20043;-53
2024/02/02 06:37:43;;;;;;;12.35;4.00;;;9.30;99.90;;;;;;5065880;28;20014;-54
2024/02/02 06:40:09;;;;;;;12.50;4.80;;;9.30;99.90;;;;;;5065975;28;20048;-54
2024/02/02 06:42:35;;;;;;;11.30;4.43;;;9.40;99.90;;;;;;5066275;28;20025;-53
2024/02/02 06:45:01;;;;;;;12.07;4.18;;;9.40;99.90;;;;;;5065962;28;20017;-54
2024/02/02 06:47:26;;;;;;;7.90;3.50;;;9.40;99.90;;;;;;5064765;28;20032;-53
2024/02/02 06:49:52;;;;;;;10.70;3.55;;;9.40;99.90;;;;;;5065354;28;20033;-52
2024/02/02 06:52:19;;;;;;;12.88;4.00;;;9.40;99.90;;;;;;5065589;28;20036;-53
2024/02/02 06:54:45;;;;;;;9.63;3.22;;;9.50;99.90;;;;;;5065960;28;20025;-53
2024/02/02 06:57:10;;;;;;;8.25;3.53;;;9.50;99.90;;;;;;5065876;28;20225;-52
2024/02/02 06:59:36;;;;;;;11.35;3.17;;;9.50;99.90;;;;;;5065838;28;20055;-54
2024/02/02 07:02:11;;;;;;;9.55;3.75;;;9.50;99.90;;;;;;5064433;28;20112;-52
2024/02/02 07:04:38;;;;;;;6.82;2.45;;;9.50;99.90;;;;;;5048744;28;20078;-53
2024/02/02 07:07:03;;;;;;;10.02;2.60;;;9.50;99.90;;;;;;5064708;28;20032;-53
2024/02/02 07:09:31;;;;;;;6.78;2.80;;;9.60;99.90;;;;;;5064733;28;20092;-53
2024/02/02 07:12:03;;;;;;;7.68;2.20;;;9.50;99.90;;;;;;5065385;28;20096;-52
2024/02/02 07:14:42;;;;;;;6.72;2.20;;;9.60;99.90;;;;;;5064564;28;20024;-54
2024/02/02 07:17:25;;;;;;;6.35;1.52;;;9.60;99.90;;;;;;5065267;28;20215;-54
2024/02/02 07:19:51;;;;;;;7.50;1.95;;;9.60;99.90;;;;;;5064745;28;20177;-53
2024/02/02 07:22:33;;;;;;;6.43;2.28;;;9.60;99.90;;;;;;5047808;28;20048;-53
2024/02/02 07:24:59;;;;;;;6.88;2.20;;;9.70;99.90;;;;;;5065385;28;20032;-54
2024/02/02 07:27:34;;;;;;;9.30;3.42;;;9.70;99.90;;;;;;5064551;28;20032;-54
2024/02/02 07:29:59;;;;;;;7.03;1.80;;;9.60;99.90;;;;;;5065069;28;20164;-53
2024/02/02 07:32:25;;;;;;;11.68;2.30;;;9.70;99.90;;;;;;5065183;28;20041;-53
2024/02/02 07:34:51;;;;;;;8.02;2.28;;;9.70;99.90;;;;;;5065389;28;20021;-53
2024/02/02 07:37:31;;;;;;;6.45;1.85;;;9.70;99.90;;;;;;5047438;28;20053;-53
2024/02/02 07:39:59;;;;;;;10.27;2.00;;;9.70;99.90;;;;;;5064583;28;20092;-53
2024/02/02 07:42:25;;;;;;;3.78;1.10;;;9.70;99.90;;;;;;5066061;28;20226;-54
2024/02/02 07:44:50;;;;;;;8.93;2.22;;;9.70;99.90;;;;;;5069129;28;20041;-54
2024/02/02 07:47:16;;;;;;;7.38;1.75;;;9.70;99.90;;;;;;5069152;28;20036;-54
2024/02/02 07:49:42;;;;;;;5.68;1.55;;;9.70;99.90;;;;;;5069181;28;20029;-54
2024/02/02 07:52:07;;;;;;;4.70;1.30;;;9.80;99.90;;;;;;5068735;28;20187;-54
2024/02/02 07:54:33;;;;;;;8.40;1.80;;;9.80;99.90;;;;;;5069085;28;20041;-53
2024/02/02 07:56:59;;;;;;;7.35;1.40;;;9.80;99.90;;;;;;5069026;28;20039;-53
2024/02/02 07:59:24;;;;;;;9.32;1.85;;;9.80;99.90;;;;;;5068809;28;20025;-54
2024/02/02 08:01:51;;;;;;;8.40;1.50;;;9.70;99.90;;;;;;5068930;28;20088;-53
2024/02/02 08:04:17;;;;;;;6.72;1.95;;;9.80;99.90;;;;;;5068760;28;20071;-53
2024/02/02 08:06:43;;;;;;;5.10;1.25;;;9.80;99.90;;;;;;5068321;28;20036;-53
2024/02/02 08:09:09;;;;;;;6.18;1.73;;;9.80;99.90;;;;;;5068772;28;20032;-54
2024/02/02 08:11:35;;;;;;;5.25;1.38;;;9.80;99.90;;;;;;5068521;28;20352;-53
2024/02/02 08:14:01;;;;;;;6.72;1.92;;;9.80;99.90;;;;;;5068647;28;20055;-53
2024/02/02 08:16:27;;;;;;;10.35;1.80;;;9.80;99.90;;;;;;5067381;28;20087;-54
2024/02/02 08:18:53;;;;;;;9.10;2.42;;;9.80;99.90;;;;;;5068621;28;20312;-53
2024/02/02 08:21:19;;;;;;;7.70;1.52;;;9.80;99.90;;;;;;5067820;28;20033;-54
2024/02/02 08:23:44;;;;;;;7.20;1.55;;;9.80;99.90;;;;;;5067998;28;20191;-53
2024/02/02 08:26:10;;;;;;;6.10;1.35;;;9.80;99.90;;;;;;5068197;28;20036;-53
2024/02/02 08:28:38;;;;;;;7.75;2.00;;;9.80;99.90;;;;;;5067158;28;20059;-54
2024/02/02 08:31:04;;;;;;;5.25;1.70;;;9.80;99.90;;;;;;5068380;28;20059;-53
2024/02/02 08:33:30;;;;;;;8.40;1.65;;;9.80;99.90;;;;;;5066770;28;20041;-54
2024/02/02 08:35:55;;;;;;;4.82;1.50;;;9.80;99.90;;;;;;5068025;28;20029;-53
2024/02/02 08:38:21;;;;;;;6.80;1.48;;;9.80;99.90;;;;;;5067636;28;20310;-53
2024/02/02 08:40:48;;;;;;;10.50;2.20;;;9.70;99.90;;;;;;5068011;28;20021;-54
2024/02/02 08:43:19;;;;;;;3.85;1.45;;;9.80;99.90;;;;;;5068083;28;20075;-54
2024/02/02 08:45:52;;;;;;;6.28;3.22;;;9.80;99.90;;;;;;5067669;28;20090;-54
2024/02/02 08:48:27;;;;;;;8.25;2.00;;;9.80;99.90;;;;;;5066591;28;20028;-53
2024/02/02 08:50:57;;;;;;;11.63;1.95;;;9.80;99.90;;;;;;5067770;28;20052;-53
2024/02/02 08:53:22;;;;;;;12.82;2.55;;;9.70;99.90;;;;;;5066052;28;20017;-54
2024/02/02 08:55:51;;;;;;;3.28;1.30;;;9.80;99.90;;;;;;5067607;28;20029;-54
2024/02/02 08:58:27;;;;;;;7.70;1.83;;;9.70;99.90;;;;;;5068326;28;20033;-53
2024/02/02 09:00:53;;;;;;;6.72;1.95;;;9.80;99.90;;;;;;5066729;28;20025;-54
2024/02/02 09:03:25;;;;;;;7.95;1.50;;;9.70;99.90;;;;;;5066448;28;20039;-53
2024/02/02 09:05:57;;;;;;;5.97;2.17;;;9.70;99.90;;;;;;5067294;28;20088;-53
2024/02/02 09:08:40;;;;;;;10.23;2.05;;;9.80;99.90;;;;;;5066520;28;20052;-54
2024/02/02 09:11:11;;;;;;;9.13;2.72;;;9.80;99.90;;;;;;5066940;28;20033;-55
2024/02/02 09:13:38;;;;;;;12.93;2.35;;;9.70;99.90;;;;;;5067006;28;20274;-54
2024/02/02 09:16:04;;;;;;;8.80;2.00;;;9.80;99.90;;;;;;5066036;28;20021;-54
2024/02/02 09:18:41;;;;;;;8.93;2.25;;;9.80;99.90;;;;;;5067379;28;20060;-54
2024/02/02 09:21:07;;;;;;;10.20;2.03;;;9.70;99.90;;;;;;5067256;28;20055;-53
2024/02/02 09:23:33;;;;;;;9.45;2.20;;;9.80;99.90;;;;;;5066934;28;20041;-54
2024/02/02 09:26:28;;;;;;;10.73;2.25;;;9.80;99.90;;;;;;5066008;28;20021;-54
2024/02/02 09:28:54;;;;;;;12.05;2.63;;;9.70;99.90;;;;;;5050569;28;20032;-53
2024/02/02 09:31:21;;;;;;;14.77;2.28;;;9.70;99.90;;;;;;5066983;28;20039;-54
2024/02/02 09:33:50;;;;;;;9.57;2.15;;;9.70;99.90;;;;;;5065936;28;20025;-51
2024/02/02 09:36:16;;;;;;;11.98;3.38;;;9.70;99.90;;;;;;5049786;28;20044;-55
2024/02/02 09:39:12;;;;;;;6.85;2.85;;;9.70;99.90;;;;;;5049266;28;20175;-53
2024/02/02 09:41:37;;;;;;;12.40;1.95;;;9.70;99.90;;;;;;5065974;28;20049;-54
2024/02/02 09:44:06;;;;;;;14.57;2.70;;;9.70;99.90;;;;;;5066363;28;20017;-53
2024/02/02 09:47:09;;;;;;;7.20;2.55;;;9.70;99.90;;;;;;5066556;28;20036;-54
2024/02/02 09:49:46;;;;;;;13.82;3.10;;;9.70;99.90;;;;;;5065560;28;20036;-53
2024/02/02 09:52:26;;;;;;;14.43;2.90;;;9.70;99.90;;;;;;5049636;28;20028;-52
2024/02/02 09:55:10;;;;;;;8.05;2.50;;;9.70;99.90;;;;;;5050088;28;20051;-54
2024/02/02 09:57:44;;;;;;;12.93;2.60;;;9.80;99.90;;;;;;5066452;28;20029;-56
2024/02/02 10:00:19;;;;;;;9.75;2.13;;;9.80;99.90;;;;;;5049352;28;20029;-57
2024/02/02 10:02:51;;;;;;;8.23;2.22;;;9.80;99.90;;;;;;5066552;28;20110;-55
2024/02/02 10:05:35;;;;;;;9.98;2.78;;;9.80;99.90;;;;;;5065619;28;20029;-55
2024/02/02 10:08:07;;;;;;;11.85;2.85;;;9.80;99.90;;;;;;5065506;28;20029;-54
2024/02/02 10:10:44;;;;;;;16.52;2.85;;;9.80;99.90;;;;;;5066300;28;20063;-54
2024/02/02 10:13:24;;;;;;;9.48;2.25;;;9.80;99.90;;;;;;5066386;28;20028;-54
2024/02/02 10:16:05;;;;;;;5.80;2.35;;;9.90;99.90;;;;;;5065287;28;20079;-54
2024/02/02 10:18:51;;;;;;;9.73;2.55;;;9.90;99.90;;;;;;5050085;28;20226;-54
2024/02/02 10:21:42;;;;;;;9.90;2.25;;;10.00;99.90;;;;;;5067019;28;20164;-54
2024/02/02 10:24:33;;;;;;;7.80;1.92;;;10.00;99.90;;;;;;5051383;28;20064;-53
2024/02/02 10:27:17;;;;;;;11.95;2.55;;;10.00;99.90;;;;;;5065973;28;20287;-53
2024/02/02 10:29:53;;;;;;;9.85;2.58;;;10.10;99.90;;;;;;5065777;28;20071;-54
2024/02/02 10:32:46;;;;;;;12.77;2.28;;;10.20;99.90;;;;;;5064938;28;20033;-52
2024/02/02 10:35:20;;;;;;;9.27;1.92;;;10.20;99.90;;;;;;5065493;28;20036;-55
2024/02/02 10:37:49;;;;;;;6.65;1.80;;;10.30;99.90;;;;;;5065533;28;20025;-55
2024/02/02 10:40:17;;;;;;;7.18;1.90;;;10.30;99.90;;;;;;5047777;28;20337;-53
2024/02/02 10:43:16;;;;;;;6.05;1.58;;;10.50;99.90;;;;;;5065694;28;20048;-54
2024/02/02 10:46:00;;;;;;;8.82;2.35;;;10.60;99.90;;;;;;5062795;28;20033;-55
2024/02/02 10:48:44;;;;;;;9.43;1.95;;;10.70;99.90;;;;;;5064443;28;20021;-54
2024/02/02 10:51:38;;;;;;;5.57;2.40;;;10.90;99.90;;;;;;5065372;28;20183;-54
2024/02/02 10:54:14;;;;;;;14.30;6.75;;;10.90;99.90;;;;;;5064618;28;20039;-54
2024/02/02 10:57:05;;;;;;;14.40;6.20;;;10.90;99.90;;;;;;5065661;28;20037;-55
2024/02/02 10:59:48;;;;;;;8.75;3.17;;;11.20;99.90;;;;;;5065448;28;20025;-55
2024/02/02 11:02:30;;;;;;;16.52;6.03;;;11.50;99.90;;;;;;5064278;28;20116;-55
2024/02/02 11:05:16;;;;;;;10.80;3.60;;;11.70;99.90;;;;;;5064786;28;20024;-53
2024/02/02 11:07:52;;;;;;;11.07;2.88;;;11.80;99.90;;;;;;5065326;28;20052;-52
2024/02/02 11:10:21;;;;;;;9.02;3.17;;;12.00;99.90;;;;;;5064375;28;20033;-54
2024/02/02 11:13:21;;;;;;;9.43;3.03;;;12.10;99.90;;;;;;5047643;28;20317;-54
2024/02/02 11:16:03;;;;;;;7.13;3.22;;;12.20;99.90;;;;;;5063556;28;20035;-56
2024/02/02 11:18:29;;;;;;;41.65;15.13;;;12.40;99.90;;;;;;5061809;28;20045;-56
2024/02/02 11:21:17;;;;;;;9.60;3.63;;;12.50;99.90;;;;;;5065175;28;20271;-55
2024/02/02 11:23:49;;;;;;;12.10;3.10;;;12.30;99.90;;;;;;5065270;28;20101;-57
2024/02/02 11:26:20;;;;;;;8.52;3.17;;;12.10;99.90;;;;;;5063694;28;20090;-56
2024/02/02 11:28:48;;;;;;;10.95;2.70;;;12.00;99.90;;;;;;5065230;28;20292;-53
2024/02/02 11:31:14;;;;;;;9.68;2.80;;;11.80;99.90;;;;;;5065025;28;20048;-56
2024/02/02 11:34:11;;;;;;;7.32;1.65;;;11.70;99.90;;;;;;5064751;28;20028;-55
2024/02/02 11:37:07;;;;;;;9.40;2.47;;;11.60;99.90;;;;;;5065121;28;20055;-56
2024/02/02 11:40:04;;;;;;;10.77;2.30;;;11.50;99.90;;;;;;5064820;28;20091;-54
2024/02/02 11:42:30;;;;;;;16.13;4.40;;;12.00;99.90;;;;;;5047489;28;20032;-53
2024/02/02 11:44:57;;;;;;;11.05;3.33;;;11.90;99.90;;;;;;5064758;28;20033;-53
2024/02/02 11:47:22;;;;;;;7.35;1.95;;;11.80;99.90;;;;;;5063332;28;20035;-53
2024/02/02 11:49:52;;;;;;;6.40;1.67;;;11.80;99.90;;;;;;5064912;28;20044;-56
2024/02/02 11:52:31;;;;;;;13.40;3.00;;;11.80;99.90;;;;;;5064677;28;20075;-56
2024/02/02 11:55:01;;;;;;;8.63;2.08;;;12.50;99.90;;;;;;5065223;28;20032;-56
2024/02/02 11:57:27;;;;;;;8.77;2.78;;;12.90;99.90;;;;;;5064839;28;20032;-56
2024/02/02 11:59:53;;;;;;;11.15;2.00;;;13.00;99.90;;;;;;5064634;28;20035;-56
2024/02/02 12:02:27;;;;;;;8.40;1.63;;;13.60;99.90;;;;;;5063599;28;20036;-56
2024/02/02 12:05:24;;;;;;;9.98;2.17;;;13.30;99.90;;;;;;5064570;28;20039;-57
2024/02/02 12:07:56;;;;;;;5.90;2.08;;;13.50;99.90;;;;;;5064122;28;20041;-55
2024/02/02 12:10:22;;;;;;;6.60;2.03;;;13.40;99.90;;;;;;5064578;28;20037;-54
2024/02/02 12:12:59;;;;;;;8.82;1.77;;;13.40;99.90;;;;;;5064567;28;20029;-54
2024/02/02 12:15:26;;;;;;;4.10;1.17;;;13.60;99.90;;;;;;5063555;28;20033;-54
2024/02/02 12:17:52;;;;;;;9.43;2.63;;;13.80;99.90;;;;;;5062965;28;20083;-57
2024/02/02 12:20:18;;;;;;;5.50;1.45;;;14.50;99.90;;;;;;5063675;28;20067;-54
2024/02/02 12:22:44;;;;;;;13.27;2.20;;;14.20;99.90;;;;;;5063553;28;20028;-60
2024/02/02 12:25:10;;;;;;;7.03;1.80;;;13.80;99.90;;;;;;5064525;28;20175;-53
2024/02/02 12:27:36;;;;;;;8.68;1.58;;;13.70;99.90;;;;;;5064332;28;20313;-54
2024/02/02 12:30:07;;;;;;;8.45;2.83;;;13.30;99.90;;;;;;5067590;28;20103;-56
2024/02/02 12:32:33;;;;;;;9.93;1.70;;;13.60;99.90;;;;;;5066973;28;20100;-54
2024/02/02 12:34:59;;;;;;;9.95;2.15;;;13.30;99.90;;;;;;5067810;28;20028;-53
2024/02/02 12:37:25;;;;;;;14.25;1.80;;;13.00;99.90;;;;;;5049992;28;20029;-53
2024/02/02 12:39:53;;;;;;;7.57;2.35;;;12.80;99.90;;;;;;5067649;28;20037;-54
2024/02/02 12:42:22;;;;;;;14.85;5.57;;;12.60;99.90;;;;;;5067278;28;20029;-54
2024/02/02 12:44:50;;;;;;;34.33;18.83;;;12.50;99.90;;;;;;5066971;28;20083;-55
2024/02/02 12:47:29;;;;;;;18.92;8.75;;;12.30;99.90;;;;;;5067462;28;20067;-53
2024/02/02 12:49:55;;;;;;;8.63;3.92;;;12.20;99.90;;;;;;5066400;28;20037;-54
2024/02/02 12:52:21;;;;;;;7.25;2.85;;;12.00;99.90;;;;;;5066853;28;20179;-54
2024/02/02 12:54:46;;;;;;;6.90;1.88;;;11.90;99.90;;;;;;5067044;28;20029;-54
2024/02/02 12:57:12;;;;;;;11.80;2.90;;;11.90;99.90;;;;;;5067601;28;20074;-55
2024/02/02 12:59:38;;;;;;;3.88;2.05;;;11.90;99.90;;;;;;5066222;28;20017;-54
2024/02/02 13:02:05;;;;;;;8.07;2.38;;;11.90;99.90;;;;;;5066272;28;20032;-54